sensor_id;sensor_type;location;lat;lon;timestamp;P1;durP1;ratioP1;P2;durP2;ratioP2
2522;SDS011;1272;53.332;9.860;2022-12-24T00:02:19;7.80;;;6.53;;
2522;SDS011;1272;53.332;9.860;2022-12-24T00:04:44;9.40;;;7.33;;
2522;SDS011;1272;53.332;9.860;2022-12-24T00:07:10;10.60;;;6.83;;
2522;SDS011;1272;53.332;9.860;2022-12-24T00:09:36;11.70;;;6.67;;
2522;SDS011;1272;53.332;9.860;2022-12-24T00:12:02;9.87;;;7.20;;
2522;SDS011;1272;53.332;9.860;2022-12-24T00:14:29;10.50;;;6.97;;
2522;SDS011;1272;53.332;9.860;2022-12-24T00:16:54;12.17;;;7.40;;
2522;SDS011;1272;53.332;9.860;2022-12-24T00:19:20;9.20;;;6.73;;
2522;SDS011;1272;53.332;9.860;2022-12-24T00:21:46;11.43;;;6.93;;
2522;SDS011;1272;53.332;9.860;2022-12-24T00:24:12;9.90;;;6.50;;
2522;SDS011;1272;53.332;9.860;2022-12-24T00:26:37;8.70;;;6.57;;
2522;SDS011;1272;53.332;9.860;2022-12-24T00:29:03;9.97;;;6.20;;
2522;SDS011;1272;53.332;9.860;2022-12-24T00:31:29;10.67;;;6.70;;
2522;SDS011;1272;53.332;9.860;2022-12-24T00:33:54;12.23;;;7.47;;
2522;SDS011;1272;53.332;9.860;2022-12-24T00:36:21;14.10;;;8.03;;
2522;SDS011;1272;53.332;9.860;2022-12-24T00:38:47;10.40;;;7.37;;
2522;SDS011;1272;53.332;9.860;2022-12-24T00:41:16;9.30;;;6.63;;
2522;SDS011;1272;53.332;9.860;2022-12-24T00:43:53;11.40;;;7.53;;
2522;SDS011;1272;53.332;9.860;2022-12-24T00:46:24;11.33;;;6.87;;
2522;SDS011;1272;53.332;9.860;2022-12-24T00:48:51;10.70;;;7.40;;
2522;SDS011;1272;53.332;9.860;2022-12-24T00:51:17;9.87;;;6.60;;
2522;SDS011;1272;53.332;9.860;2022-12-24T00:53:44;10.90;;;7.73;;
2522;SDS011;1272;53.332;9.860;2022-12-24T00:56:10;8.97;;;6.60;;
2522;SDS011;1272;53.332;9.860;2022-12-24T00:58:36;8.87;;;6.07;;
2522;SDS011;1272;53.332;9.860;2022-12-24T01:01:01;8.73;;;6.00;;
2522;SDS011;1272;53.332;9.860;2022-12-24T01:03:28;10.37;;;7.40;;
2522;SDS011;1272;53.332;9.860;2022-12-24T01:06:03;9.10;;;6.60;;
2522;SDS011;1272;53.332;9.860;2022-12-24T01:08:31;9.93;;;6.47;;
2522;SDS011;1272;53.332;9.860;2022-12-24T01:10:57;9.70;;;6.80;;
2522;SDS011;1272;53.332;9.860;2022-12-24T01:13:24;9.80;;;5.63;;
2522;SDS011;1272;53.332;9.860;2022-12-24T01:15:49;6.07;;;5.43;;
2522;SDS011;1272;53.332;9.860;2022-12-24T01:18:15;8.20;;;5.23;;
2522;SDS011;1272;53.332;9.860;2022-12-24T01:20:41;5.87;;;5.30;;
2522;SDS011;1272;53.332;9.860;2022-12-24T01:23:07;7.33;;;5.23;;
2522;SDS011;1272;53.332;9.860;2022-12-24T01:25:33;8.17;;;5.40;;
2522;SDS011;1272;53.332;9.860;2022-12-24T01:27:58;6.27;;;5.30;;
2522;SDS011;1272;53.332;9.860;2022-12-24T01:30:24;6.50;;;5.43;;
2522;SDS011;1272;53.332;9.860;2022-12-24T01:32:50;8.67;;;5.70;;
2522;SDS011;1272;53.332;9.860;2022-12-24T01:35:15;4.57;;;4.17;;
2522;SDS011;1272;53.332;9.860;2022-12-24T01:37:41;12.20;;;5.90;;
2522;SDS011;1272;53.332;9.860;2022-12-24T01:40:09;7.50;;;4.97;;
2522;SDS011;1272;53.332;9.860;2022-12-24T01:42:57;8.80;;;5.60;;
2522;SDS011;1272;53.332;9.860;2022-12-24T01:45:49;6.67;;;5.27;;
2522;SDS011;1272;53.332;9.860;2022-12-24T01:50:55;6.00;;;5.13;;
2522;SDS011;1272;53.332;9.860;2022-12-24T01:53:25;8.43;;;5.27;;
2522;SDS011;1272;53.332;9.860;2022-12-24T01:55:51;8.57;;;5.37;;
2522;SDS011;1272;53.332;9.860;2022-12-24T01:58:18;6.60;;;5.30;;
2522;SDS011;1272;53.332;9.860;2022-12-24T02:00:46;10.10;;;6.43;;
2522;SDS011;1272;53.332;9.860;2022-12-24T02:03:12;8.50;;;5.40;;
2522;SDS011;1272;53.332;9.860;2022-12-24T02:08:17;6.43;;;5.60;;
2522;SDS011;1272;53.332;9.860;2022-12-24T02:10:44;7.97;;;4.90;;
2522;SDS011;1272;53.332;9.860;2022-12-24T02:13:14;8.77;;;6.43;;
2522;SDS011;1272;53.332;9.860;2022-12-24T02:18:54;8.93;;;5.70;;
2522;SDS011;1272;53.332;9.860;2022-12-24T02:35:56;8.60;;;6.13;;
2522;SDS011;1272;53.332;9.860;2022-12-24T02:38:30;6.87;;;5.57;;
2522;SDS011;1272;53.332;9.860;2022-12-24T02:41:02;8.10;;;5.80;;
2522;SDS011;1272;53.332;9.860;2022-12-24T02:43:37;7.13;;;5.50;;
2522;SDS011;1272;53.332;9.860;2022-12-24T02:46:16;8.73;;;5.37;;
2522;SDS011;1272;53.332;9.860;2022-12-24T02:48:51;7.17;;;6.03;;
2522;SDS011;1272;53.332;9.860;2022-12-24T02:51:20;7.97;;;5.70;;
2522;SDS011;1272;53.332;9.860;2022-12-24T02:53:47;6.73;;;5.40;;
2522;SDS011;1272;53.332;9.860;2022-12-24T02:58:58;6.80;;;6.10;;
2522;SDS011;1272;53.332;9.860;2022-12-24T03:04:54;7.07;;;5.80;;
2522;SDS011;1272;53.332;9.860;2022-12-24T03:07:37;5.93;;;5.13;;
2522;SDS011;1272;53.332;9.860;2022-12-24T03:10:19;6.60;;;5.87;;
2522;SDS011;1272;53.332;9.860;2022-12-24T03:13:00;8.23;;;5.40;;
2522;SDS011;1272;53.332;9.860;2022-12-24T03:15:30;7.80;;;6.63;;
2522;SDS011;1272;53.332;9.860;2022-12-24T03:17:57;7.50;;;5.30;;
2522;SDS011;1272;53.332;9.860;2022-12-24T03:20:26;9.67;;;6.40;;
2522;SDS011;1272;53.332;9.860;2022-12-24T03:23:01;7.07;;;5.30;;
2522;SDS011;1272;53.332;9.860;2022-12-24T03:25:27;13.87;;;7.10;;
2522;SDS011;1272;53.332;9.860;2022-12-24T03:27:54;8.10;;;5.87;;
2522;SDS011;1272;53.332;9.860;2022-12-24T03:30:21;7.53;;;5.03;;
2522;SDS011;1272;53.332;9.860;2022-12-24T03:33:08;8.57;;;5.50;;
2522;SDS011;1272;53.332;9.860;2022-12-24T03:35:33;7.93;;;6.10;;
2522;SDS011;1272;53.332;9.860;2022-12-24T03:37:59;8.70;;;6.80;;
2522;SDS011;1272;53.332;9.860;2022-12-24T03:40:25;8.17;;;6.43;;
2522;SDS011;1272;53.332;9.860;2022-12-24T03:42:50;10.03;;;6.43;;
2522;SDS011;1272;53.332;9.860;2022-12-24T03:45:16;9.03;;;6.50;;
2522;SDS011;1272;53.332;9.860;2022-12-24T03:47:42;9.50;;;6.47;;
2522;SDS011;1272;53.332;9.860;2022-12-24T03:50:08;8.70;;;6.60;;
2522;SDS011;1272;53.332;9.860;2022-12-24T03:52:34;8.30;;;6.00;;
2522;SDS011;1272;53.332;9.860;2022-12-24T03:55:00;8.17;;;5.90;;
2522;SDS011;1272;53.332;9.860;2022-12-24T03:57:25;7.70;;;5.50;;
2522;SDS011;1272;53.332;9.860;2022-12-24T03:59:51;9.00;;;6.43;;
2522;SDS011;1272;53.332;9.860;2022-12-24T04:02:17;13.53;;;6.37;;
2522;SDS011;1272;53.332;9.860;2022-12-24T04:04:43;11.80;;;6.20;;
2522;SDS011;1272;53.332;9.860;2022-12-24T04:07:08;11.20;;;6.90;;
2522;SDS011;1272;53.332;9.860;2022-12-24T04:09:34;9.20;;;6.67;;
2522;SDS011;1272;53.332;9.860;2022-12-24T04:12:00;8.40;;;5.53;;
2522;SDS011;1272;53.332;9.860;2022-12-24T04:14:26;7.23;;;5.70;;
2522;SDS011;1272;53.332;9.860;2022-12-24T04:16:51;8.13;;;5.57;;
2522;SDS011;1272;53.332;9.860;2022-12-24T04:19:17;7.60;;;6.23;;
2522;SDS011;1272;53.332;9.860;2022-12-24T04:21:43;7.70;;;5.63;;
2522;SDS011;1272;53.332;9.860;2022-12-24T04:24:08;7.93;;;5.40;;
2522;SDS011;1272;53.332;9.860;2022-12-24T04:26:34;7.43;;;5.87;;
2522;SDS011;1272;53.332;9.860;2022-12-24T04:29:00;8.50;;;6.60;;
2522;SDS011;1272;53.332;9.860;2022-12-24T04:31:25;9.70;;;6.00;;
2522;SDS011;1272;53.332;9.860;2022-12-24T04:33:51;7.00;;;5.90;;
2522;SDS011;1272;53.332;9.860;2022-12-24T04:36:17;6.40;;;5.40;;
2522;SDS011;1272;53.332;9.860;2022-12-24T04:38:45;6.50;;;5.57;;
2522;SDS011;1272;53.332;9.860;2022-12-24T04:41:12;7.87;;;5.30;;
2522;SDS011;1272;53.332;9.860;2022-12-24T04:43:40;7.33;;;4.70;;
2522;SDS011;1272;53.332;9.860;2022-12-24T04:46:08;7.00;;;4.90;;
2522;SDS011;1272;53.332;9.860;2022-12-24T04:48:35;10.80;;;6.40;;
2522;SDS011;1272;53.332;9.860;2022-12-24T04:51:02;7.73;;;5.40;;
2522;SDS011;1272;53.332;9.860;2022-12-24T04:53:29;7.93;;;5.13;;
2522;SDS011;1272;53.332;9.860;2022-12-24T04:55:56;6.50;;;5.57;;
2522;SDS011;1272;53.332;9.860;2022-12-24T04:58:22;8.07;;;5.80;;
2522;SDS011;1272;53.332;9.860;2022-12-24T05:00:53;8.43;;;6.33;;
2522;SDS011;1272;53.332;9.860;2022-12-24T05:03:19;7.43;;;6.50;;
2522;SDS011;1272;53.332;9.860;2022-12-24T05:05:48;9.17;;;6.00;;
2522;SDS011;1272;53.332;9.860;2022-12-24T05:08:14;7.13;;;5.60;;
2522;SDS011;1272;53.332;9.860;2022-12-24T05:10:39;7.70;;;6.33;;
2522;SDS011;1272;53.332;9.860;2022-12-24T05:13:05;8.40;;;5.87;;
2522;SDS011;1272;53.332;9.860;2022-12-24T05:15:31;9.10;;;6.50;;
2522;SDS011;1272;53.332;9.860;2022-12-24T05:17:56;7.77;;;6.40;;
2522;SDS011;1272;53.332;9.860;2022-12-24T05:20:22;6.50;;;5.30;;
2522;SDS011;1272;53.332;9.860;2022-12-24T05:22:48;11.60;;;6.63;;
2522;SDS011;1272;53.332;9.860;2022-12-24T05:25:33;8.53;;;6.00;;
2522;SDS011;1272;53.332;9.860;2022-12-24T05:28:21;7.13;;;5.23;;
2522;SDS011;1272;53.332;9.860;2022-12-24T05:30:46;9.83;;;6.50;;
2522;SDS011;1272;53.332;9.860;2022-12-24T05:33:12;7.97;;;5.40;;
2522;SDS011;1272;53.332;9.860;2022-12-24T05:35:38;6.77;;;5.67;;
2522;SDS011;1272;53.332;9.860;2022-12-24T05:38:03;7.17;;;6.00;;
2522;SDS011;1272;53.332;9.860;2022-12-24T05:40:32;7.30;;;5.27;;
2522;SDS011;1272;53.332;9.860;2022-12-24T05:42:58;8.43;;;6.30;;
2522;SDS011;1272;53.332;9.860;2022-12-24T05:45:25;14.03;;;6.60;;
2522;SDS011;1272;53.332;9.860;2022-12-24T05:47:50;7.27;;;5.23;;
2522;SDS011;1272;53.332;9.860;2022-12-24T05:50:16;9.30;;;6.53;;
2522;SDS011;1272;53.332;9.860;2022-12-24T05:52:42;9.70;;;6.83;;
2522;SDS011;1272;53.332;9.860;2022-12-24T05:55:08;7.00;;;5.20;;
2522;SDS011;1272;53.332;9.860;2022-12-24T05:57:33;8.07;;;6.20;;
2522;SDS011;1272;53.332;9.860;2022-12-24T05:59:59;8.20;;;5.80;;
2522;SDS011;1272;53.332;9.860;2022-12-24T06:02:25;7.73;;;5.97;;
2522;SDS011;1272;53.332;9.860;2022-12-24T06:04:51;10.27;;;7.07;;
2522;SDS011;1272;53.332;9.860;2022-12-24T06:07:16;9.53;;;6.07;;
2522;SDS011;1272;53.332;9.860;2022-12-24T06:09:42;8.10;;;5.77;;
2522;SDS011;1272;53.332;9.860;2022-12-24T06:12:07;10.63;;;6.37;;
2522;SDS011;1272;53.332;9.860;2022-12-24T06:14:33;10.80;;;6.77;;
2522;SDS011;1272;53.332;9.860;2022-12-24T06:16:59;8.33;;;6.60;;
2522;SDS011;1272;53.332;9.860;2022-12-24T06:19:24;10.03;;;7.17;;
2522;SDS011;1272;53.332;9.860;2022-12-24T06:21:50;9.87;;;6.37;;
2522;SDS011;1272;53.332;9.860;2022-12-24T06:24:16;11.57;;;7.00;;
2522;SDS011;1272;53.332;9.860;2022-12-24T06:26:41;9.10;;;6.60;;
2522;SDS011;1272;53.332;9.860;2022-12-24T06:29:07;11.07;;;6.93;;
2522;SDS011;1272;53.332;9.860;2022-12-24T06:31:34;9.43;;;6.37;;
2522;SDS011;1272;53.332;9.860;2022-12-24T06:34:02;7.73;;;5.60;;
2522;SDS011;1272;53.332;9.860;2022-12-24T06:36:28;9.70;;;6.90;;
2522;SDS011;1272;53.332;9.860;2022-12-24T06:38:54;12.00;;;7.10;;
2522;SDS011;1272;53.332;9.860;2022-12-24T06:41:20;8.27;;;6.60;;
2522;SDS011;1272;53.332;9.860;2022-12-24T06:43:47;8.90;;;6.27;;
2522;SDS011;1272;53.332;9.860;2022-12-24T06:46:14;8.47;;;6.30;;
2522;SDS011;1272;53.332;9.860;2022-12-24T06:48:45;9.20;;;5.80;;
2522;SDS011;1272;53.332;9.860;2022-12-24T06:51:11;8.10;;;6.03;;
2522;SDS011;1272;53.332;9.860;2022-12-24T06:53:39;10.97;;;6.80;;
2522;SDS011;1272;53.332;9.860;2022-12-24T06:56:06;9.47;;;6.50;;
2522;SDS011;1272;53.332;9.860;2022-12-24T06:58:33;7.83;;;5.93;;
2522;SDS011;1272;53.332;9.860;2022-12-24T07:01:00;8.93;;;5.43;;
2522;SDS011;1272;53.332;9.860;2022-12-24T07:03:27;8.57;;;6.30;;
2522;SDS011;1272;53.332;9.860;2022-12-24T07:05:53;7.80;;;6.03;;
2522;SDS011;1272;53.332;9.860;2022-12-24T07:08:19;8.33;;;7.00;;
2522;SDS011;1272;53.332;9.860;2022-12-24T07:10:46;8.00;;;6.90;;
2522;SDS011;1272;53.332;9.860;2022-12-24T07:13:13;11.10;;;7.20;;
2522;SDS011;1272;53.332;9.860;2022-12-24T07:15:39;13.13;;;7.80;;
2522;SDS011;1272;53.332;9.860;2022-12-24T07:18:05;9.07;;;7.03;;
2522;SDS011;1272;53.332;9.860;2022-12-24T07:20:31;9.03;;;6.90;;
2522;SDS011;1272;53.332;9.860;2022-12-24T07:22:56;9.83;;;7.43;;
2522;SDS011;1272;53.332;9.860;2022-12-24T07:25:22;7.20;;;5.63;;
2522;SDS011;1272;53.332;9.860;2022-12-24T07:27:48;9.93;;;6.97;;
2522;SDS011;1272;53.332;9.860;2022-12-24T07:30:13;10.00;;;7.00;;
2522;SDS011;1272;53.332;9.860;2022-12-24T07:32:39;10.73;;;7.23;;
2522;SDS011;1272;53.332;9.860;2022-12-24T07:35:05;7.97;;;5.53;;
2522;SDS011;1272;53.332;9.860;2022-12-24T07:37:31;6.90;;;5.47;;
2522;SDS011;1272;53.332;9.860;2022-12-24T07:39:57;8.57;;;6.20;;
2522;SDS011;1272;53.332;9.860;2022-12-24T07:42:23;6.77;;;5.47;;
2522;SDS011;1272;53.332;9.860;2022-12-24T07:44:48;6.73;;;5.33;;
2522;SDS011;1272;53.332;9.860;2022-12-24T07:47:14;6.33;;;5.27;;
2522;SDS011;1272;53.332;9.860;2022-12-24T07:49:40;5.90;;;5.27;;
2522;SDS011;1272;53.332;9.860;2022-12-24T07:52:06;6.07;;;5.17;;
2522;SDS011;1272;53.332;9.860;2022-12-24T07:54:32;7.60;;;5.17;;
2522;SDS011;1272;53.332;9.860;2022-12-24T07:56:57;8.20;;;5.20;;
2522;SDS011;1272;53.332;9.860;2022-12-24T07:59:23;4.90;;;4.47;;
2522;SDS011;1272;53.332;9.860;2022-12-24T08:01:49;6.30;;;4.53;;
2522;SDS011;1272;53.332;9.860;2022-12-24T08:04:14;4.20;;;3.90;;
2522;SDS011;1272;53.332;9.860;2022-12-24T08:06:40;4.57;;;4.17;;
2522;SDS011;1272;53.332;9.860;2022-12-24T08:09:06;3.93;;;3.63;;
2522;SDS011;1272;53.332;9.860;2022-12-24T08:11:31;4.60;;;4.20;;
2522;SDS011;1272;53.332;9.860;2022-12-24T08:13:57;5.03;;;4.57;;
2522;SDS011;1272;53.332;9.860;2022-12-24T08:16:23;5.17;;;4.67;;
2522;SDS011;1272;53.332;9.860;2022-12-24T08:18:48;5.57;;;4.87;;
2522;SDS011;1272;53.332;9.860;2022-12-24T08:21:14;5.83;;;5.10;;
2522;SDS011;1272;53.332;9.860;2022-12-24T08:23:40;5.13;;;4.70;;
2522;SDS011;1272;53.332;9.860;2022-12-24T08:26:06;7.30;;;4.90;;
2522;SDS011;1272;53.332;9.860;2022-12-24T08:28:33;5.20;;;4.70;;
2522;SDS011;1272;53.332;9.860;2022-12-24T08:30:59;5.17;;;4.60;;
2522;SDS011;1272;53.332;9.860;2022-12-24T08:33:25;6.73;;;5.17;;
2522;SDS011;1272;53.332;9.860;2022-12-24T08:35:53;6.03;;;5.43;;
2522;SDS011;1272;53.332;9.860;2022-12-24T08:38:20;4.90;;;4.00;;
2522;SDS011;1272;53.332;9.860;2022-12-24T08:40:46;4.90;;;4.40;;
2522;SDS011;1272;53.332;9.860;2022-12-24T08:43:14;5.30;;;4.77;;
2522;SDS011;1272;53.332;9.860;2022-12-24T08:45:40;5.57;;;5.00;;
2522;SDS011;1272;53.332;9.860;2022-12-24T08:48:06;7.30;;;5.27;;
2522;SDS011;1272;53.332;9.860;2022-12-24T08:50:33;5.30;;;4.80;;
2522;SDS011;1272;53.332;9.860;2022-12-24T08:52:59;5.87;;;5.03;;
2522;SDS011;1272;53.332;9.860;2022-12-24T08:55:24;7.40;;;6.20;;
2522;SDS011;1272;53.332;9.860;2022-12-24T08:57:50;10.13;;;8.40;;
2522;SDS011;1272;53.332;9.860;2022-12-24T09:00:16;9.33;;;7.73;;
2522;SDS011;1272;53.332;9.860;2022-12-24T09:02:42;9.50;;;6.90;;
2522;SDS011;1272;53.332;9.860;2022-12-24T09:05:08;7.70;;;6.10;;
2522;SDS011;1272;53.332;9.860;2022-12-24T09:07:33;7.60;;;6.53;;
2522;SDS011;1272;53.332;9.860;2022-12-24T09:09:59;8.70;;;6.23;;
2522;SDS011;1272;53.332;9.860;2022-12-24T09:12:25;7.23;;;6.30;;
2522;SDS011;1272;53.332;9.860;2022-12-24T09:14:51;7.10;;;5.73;;
2522;SDS011;1272;53.332;9.860;2022-12-24T09:17:18;8.67;;;7.17;;
2522;SDS011;1272;53.332;9.860;2022-12-24T09:19:47;9.00;;;6.80;;
2522;SDS011;1272;53.332;9.860;2022-12-24T09:22:15;7.70;;;5.80;;
2522;SDS011;1272;53.332;9.860;2022-12-24T09:24:41;8.40;;;6.47;;
2522;SDS011;1272;53.332;9.860;2022-12-24T09:27:07;8.23;;;6.23;;
2522;SDS011;1272;53.332;9.860;2022-12-24T09:29:32;5.93;;;5.33;;
2522;SDS011;1272;53.332;9.860;2022-12-24T09:31:59;8.20;;;6.10;;
2522;SDS011;1272;53.332;9.860;2022-12-24T09:34:25;6.83;;;5.67;;
2522;SDS011;1272;53.332;9.860;2022-12-24T09:36:51;9.70;;;6.90;;
2522;SDS011;1272;53.332;9.860;2022-12-24T09:39:18;7.40;;;5.80;;
2522;SDS011;1272;53.332;9.860;2022-12-24T09:53:21;9.53;;;7.47;;
2522;SDS011;1272;53.332;9.860;2022-12-24T09:55:58;8.23;;;6.80;;
2522;SDS011;1272;53.332;9.860;2022-12-24T09:58:47;10.83;;;7.73;;
2522;SDS011;1272;53.332;9.860;2022-12-24T10:01:24;9.10;;;6.77;;
2522;SDS011;1272;53.332;9.860;2022-12-24T10:03:51;8.87;;;7.97;;
2522;SDS011;1272;53.332;9.860;2022-12-24T10:06:17;8.57;;;7.37;;
2522;SDS011;1272;53.332;9.860;2022-12-24T10:08:55;11.00;;;7.90;;
2522;SDS011;1272;53.332;9.860;2022-12-24T10:21:47;16.10;;;11.07;;
2522;SDS011;1272;53.332;9.860;2022-12-24T10:24:20;19.00;;;11.60;;
2522;SDS011;1272;53.332;9.860;2022-12-24T10:26:59;17.67;;;12.00;;
2522;SDS011;1272;53.332;9.860;2022-12-24T10:29:30;18.20;;;13.67;;
2522;SDS011;1272;53.332;9.860;2022-12-24T10:34:51;19.57;;;12.80;;
2522;SDS011;1272;53.332;9.860;2022-12-24T10:37:27;25.27;;;15.10;;
2522;SDS011;1272;53.332;9.860;2022-12-24T10:39:54;23.87;;;14.10;;
2522;SDS011;1272;53.332;9.860;2022-12-24T10:42:22;47.73;;;21.50;;
2522;SDS011;1272;53.332;9.860;2022-12-24T10:44:58;29.47;;;14.47;;
2522;SDS011;1272;53.332;9.860;2022-12-24T10:47:27;25.10;;;14.00;;
2522;SDS011;1272;53.332;9.860;2022-12-24T10:49:56;25.10;;;14.53;;
2522;SDS011;1272;53.332;9.860;2022-12-24T10:52:28;34.43;;;16.03;;
2522;SDS011;1272;53.332;9.860;2022-12-24T10:57:43;35.80;;;16.20;;
2522;SDS011;1272;53.332;9.860;2022-12-24T11:00:20;34.90;;;16.90;;
2522;SDS011;1272;53.332;9.860;2022-12-24T11:02:48;38.33;;;16.50;;
2522;SDS011;1272;53.332;9.860;2022-12-24T11:05:33;38.80;;;15.00;;
2522;SDS011;1272;53.332;9.860;2022-12-24T11:08:04;29.40;;;15.77;;
2522;SDS011;1272;53.332;9.860;2022-12-24T11:10:34;40.90;;;16.20;;
2522;SDS011;1272;53.332;9.860;2022-12-24T11:13:03;41.53;;;17.37;;
2522;SDS011;1272;53.332;9.860;2022-12-24T11:15:30;36.17;;;15.60;;
2522;SDS011;1272;53.332;9.860;2022-12-24T11:18:02;34.43;;;16.97;;
2522;SDS011;1272;53.332;9.860;2022-12-24T11:20:31;40.20;;;14.00;;
2522;SDS011;1272;53.332;9.860;2022-12-24T11:22:58;36.17;;;15.83;;
2522;SDS011;1272;53.332;9.860;2022-12-24T11:25:26;39.03;;;14.50;;
2522;SDS011;1272;53.332;9.860;2022-12-24T11:27:55;35.73;;;15.43;;
2522;SDS011;1272;53.332;9.860;2022-12-24T11:30:34;45.07;;;15.80;;
2522;SDS011;1272;53.332;9.860;2022-12-24T11:35:27;36.00;;;14.27;;
2522;SDS011;1272;53.332;9.860;2022-12-24T11:43:04;32.87;;;12.07;;
2522;SDS011;1272;53.332;9.860;2022-12-24T11:45:31;39.13;;;15.63;;
2522;SDS011;1272;53.332;9.860;2022-12-24T11:47:58;37.77;;;14.30;;
2522;SDS011;1272;53.332;9.860;2022-12-24T11:50:29;30.00;;;11.23;;
2522;SDS011;1272;53.332;9.860;2022-12-24T11:53:03;37.70;;;14.60;;
2522;SDS011;1272;53.332;9.860;2022-12-24T11:55:44;45.97;;;15.47;;
2522;SDS011;1272;53.332;9.860;2022-12-24T12:01:03;23.53;;;9.33;;
2522;SDS011;1272;53.332;9.860;2022-12-24T12:03:35;35.70;;;10.10;;
2522;SDS011;1272;53.332;9.860;2022-12-24T12:08:51;29.83;;;9.00;;
2522;SDS011;1272;53.332;9.860;2022-12-24T12:11:40;30.43;;;10.63;;
2522;SDS011;1272;53.332;9.860;2022-12-24T12:14:12;24.80;;;9.30;;
2522;SDS011;1272;53.332;9.860;2022-12-24T12:16:45;31.87;;;9.70;;
2522;SDS011;1272;53.332;9.860;2022-12-24T12:28:06;26.23;;;11.20;;
2522;SDS011;1272;53.332;9.860;2022-12-24T12:30:38;22.03;;;7.13;;
2522;SDS011;1272;53.332;9.860;2022-12-24T12:33:27;21.40;;;6.67;;
2522;SDS011;1272;53.332;9.860;2022-12-24T12:35:59;30.03;;;7.13;;
2522;SDS011;1272;53.332;9.860;2022-12-24T12:38:26;30.73;;;10.63;;
2522;SDS011;1272;53.332;9.860;2022-12-24T12:57:25;38.73;;;16.33;;
2522;SDS011;1272;53.332;9.860;2022-12-24T13:00:00;30.30;;;12.10;;
2522;SDS011;1272;53.332;9.860;2022-12-24T13:02:36;27.10;;;8.93;;
2522;SDS011;1272;53.332;9.860;2022-12-24T13:13:23;18.63;;;6.80;;
2522;SDS011;1272;53.332;9.860;2022-12-24T13:21:49;22.40;;;6.10;;
2522;SDS011;1272;53.332;9.860;2022-12-24T13:24:23;30.23;;;6.20;;
2522;SDS011;1272;53.332;9.860;2022-12-24T13:26:59;16.43;;;7.20;;
2522;SDS011;1272;53.332;9.860;2022-12-24T13:34:52;22.70;;;6.70;;
2522;SDS011;1272;53.332;9.860;2022-12-24T13:47:59;47.57;;;17.10;;
2522;SDS011;1272;53.332;9.860;2022-12-24T13:50:47;32.50;;;15.30;;
2522;SDS011;1272;53.332;9.860;2022-12-24T13:58:47;31.53;;;13.00;;
2522;SDS011;1272;53.332;9.860;2022-12-24T14:01:19;35.40;;;15.07;;
2522;SDS011;1272;53.332;9.860;2022-12-24T14:03:49;21.33;;;12.90;;
2522;SDS011;1272;53.332;9.860;2022-12-24T14:06:28;20.00;;;10.37;;
2522;SDS011;1272;53.332;9.860;2022-12-24T14:09:13;13.77;;;9.00;;
2522;SDS011;1272;53.332;9.860;2022-12-24T14:14:26;21.33;;;9.30;;
2522;SDS011;1272;53.332;9.860;2022-12-24T14:16:57;20.87;;;9.07;;
2522;SDS011;1272;53.332;9.860;2022-12-24T14:19:39;37.73;;;17.07;;
2522;SDS011;1272;53.332;9.860;2022-12-24T14:24:58;43.03;;;25.17;;
2522;SDS011;1272;53.332;9.860;2022-12-24T14:27:57;33.70;;;19.60;;
2522;SDS011;1272;53.332;9.860;2022-12-24T14:30:28;27.87;;;10.90;;
2522;SDS011;1272;53.332;9.860;2022-12-24T14:32:55;32.00;;;14.27;;
2522;SDS011;1272;53.332;9.860;2022-12-24T14:35:27;32.40;;;14.20;;
2522;SDS011;1272;53.332;9.860;2022-12-24T14:38:00;20.60;;;10.60;;
2522;SDS011;1272;53.332;9.860;2022-12-24T14:40:41;15.60;;;10.00;;
2522;SDS011;1272;53.332;9.860;2022-12-24T14:48:37;19.47;;;8.10;;
2522;SDS011;1272;53.332;9.860;2022-12-24T14:54:41;14.20;;;9.00;;
2522;SDS011;1272;53.332;9.860;2022-12-24T14:57:12;16.07;;;9.50;;
2522;SDS011;1272;53.332;9.860;2022-12-24T15:05:05;31.80;;;8.40;;
2522;SDS011;1272;53.332;9.860;2022-12-24T15:07:33;26.57;;;9.60;;
2522;SDS011;1272;53.332;9.860;2022-12-24T15:10:01;20.63;;;10.40;;
2522;SDS011;1272;53.332;9.860;2022-12-24T15:12:29;56.23;;;32.73;;
2522;SDS011;1272;53.332;9.860;2022-12-24T15:14:56;42.27;;;24.83;;
2522;SDS011;1272;53.332;9.860;2022-12-24T15:17:22;32.23;;;20.57;;
2522;SDS011;1272;53.332;9.860;2022-12-24T15:19:49;38.00;;;21.30;;
2522;SDS011;1272;53.332;9.860;2022-12-24T15:22:24;32.10;;;19.63;;
2522;SDS011;1272;53.332;9.860;2022-12-24T15:24:53;41.80;;;22.17;;
2522;SDS011;1272;53.332;9.860;2022-12-24T15:27:20;34.77;;;19.00;;
2522;SDS011;1272;53.332;9.860;2022-12-24T15:29:52;40.93;;;21.63;;
2522;SDS011;1272;53.332;9.860;2022-12-24T15:32:20;29.87;;;14.37;;
2522;SDS011;1272;53.332;9.860;2022-12-24T15:34:49;22.40;;;12.30;;
2522;SDS011;1272;53.332;9.860;2022-12-24T15:37:29;30.70;;;15.47;;
2522;SDS011;1272;53.332;9.860;2022-12-24T15:42:34;24.63;;;11.90;;
2522;SDS011;1272;53.332;9.860;2022-12-24T15:45:26;28.40;;;15.83;;
2522;SDS011;1272;53.332;9.860;2022-12-24T15:47:53;33.67;;;15.40;;
2522;SDS011;1272;53.332;9.860;2022-12-24T15:50:32;22.97;;;11.90;;
2522;SDS011;1272;53.332;9.860;2022-12-24T15:53:03;33.90;;;16.10;;
2522;SDS011;1272;53.332;9.860;2022-12-24T15:55:38;36.20;;;11.70;;
2522;SDS011;1272;53.332;9.860;2022-12-24T15:58:17;16.57;;;9.90;;
2522;SDS011;1272;53.332;9.860;2022-12-24T16:06:16;24.57;;;11.33;;
2522;SDS011;1272;53.332;9.860;2022-12-24T16:08:42;29.33;;;13.97;;
2522;SDS011;1272;53.332;9.860;2022-12-24T16:11:13;28.43;;;13.43;;
2522;SDS011;1272;53.332;9.860;2022-12-24T16:19:35;34.40;;;13.93;;
2522;SDS011;1272;53.332;9.860;2022-12-24T16:22:02;74.90;;;38.33;;
2522;SDS011;1272;53.332;9.860;2022-12-24T16:24:48;42.00;;;24.17;;
2522;SDS011;1272;53.332;9.860;2022-12-24T16:27:16;27.77;;;13.57;;
2522;SDS011;1272;53.332;9.860;2022-12-24T16:29:42;37.90;;;19.60;;
2522;SDS011;1272;53.332;9.860;2022-12-24T16:35:04;34.03;;;16.77;;
2522;SDS011;1272;53.332;9.860;2022-12-24T16:37:32;26.80;;;13.00;;
2522;SDS011;1272;53.332;9.860;2022-12-24T16:39:58;30.13;;;15.30;;
2522;SDS011;1272;53.332;9.860;2022-12-24T16:42:24;30.50;;;17.20;;
2522;SDS011;1272;53.332;9.860;2022-12-24T16:45:16;29.97;;;17.20;;
2522;SDS011;1272;53.332;9.860;2022-12-24T16:47:42;47.30;;;18.27;;
2522;SDS011;1272;53.332;9.860;2022-12-24T16:50:10;28.93;;;14.80;;
2522;SDS011;1272;53.332;9.860;2022-12-24T16:52:40;49.53;;;22.40;;
2522;SDS011;1272;53.332;9.860;2022-12-24T16:55:05;48.10;;;33.20;;
2522;SDS011;1272;53.332;9.860;2022-12-24T16:57:31;43.20;;;23.07;;
2522;SDS011;1272;53.332;9.860;2022-12-24T16:59:57;46.47;;;21.27;;
2522;SDS011;1272;53.332;9.860;2022-12-24T17:02:23;44.53;;;22.90;;
2522;SDS011;1272;53.332;9.860;2022-12-24T17:04:49;30.10;;;13.30;;
2522;SDS011;1272;53.332;9.860;2022-12-24T17:07:15;30.30;;;19.40;;
2522;SDS011;1272;53.332;9.860;2022-12-24T17:09:43;30.43;;;18.30;;
2522;SDS011;1272;53.332;9.860;2022-12-24T17:12:09;16.80;;;14.10;;
2522;SDS011;1272;53.332;9.860;2022-12-24T17:14:35;22.93;;;11.90;;
2522;SDS011;1272;53.332;9.860;2022-12-24T17:17:03;23.20;;;12.17;;
2522;SDS011;1272;53.332;9.860;2022-12-24T17:19:32;29.47;;;12.30;;
2522;SDS011;1272;53.332;9.860;2022-12-24T17:22:00;17.87;;;9.30;;
2522;SDS011;1272;53.332;9.860;2022-12-24T17:24:26;23.10;;;11.70;;
2522;SDS011;1272;53.332;9.860;2022-12-24T17:26:51;26.23;;;10.60;;
2522;SDS011;1272;53.332;9.860;2022-12-24T17:29:17;25.77;;;12.10;;
2522;SDS011;1272;53.332;9.860;2022-12-24T17:31:43;21.07;;;8.90;;
2522;SDS011;1272;53.332;9.860;2022-12-24T17:34:08;21.90;;;11.30;;
2522;SDS011;1272;53.332;9.860;2022-12-24T17:36:34;18.20;;;8.70;;
2522;SDS011;1272;53.332;9.860;2022-12-24T17:39:00;14.97;;;9.00;;
2522;SDS011;1272;53.332;9.860;2022-12-24T17:41:28;16.53;;;7.50;;
2522;SDS011;1272;53.332;9.860;2022-12-24T17:43:54;17.73;;;7.97;;
2522;SDS011;1272;53.332;9.860;2022-12-24T17:46:21;19.70;;;8.33;;
2522;SDS011;1272;53.332;9.860;2022-12-24T17:48:48;21.67;;;8.00;;
2522;SDS011;1272;53.332;9.860;2022-12-24T17:51:16;19.77;;;7.80;;
2522;SDS011;1272;53.332;9.860;2022-12-24T17:53:44;23.73;;;7.90;;
2522;SDS011;1272;53.332;9.860;2022-12-24T17:56:10;25.17;;;9.57;;
2522;SDS011;1272;53.332;9.860;2022-12-24T17:58:38;18.57;;;7.87;;
2522;SDS011;1272;53.332;9.860;2022-12-24T18:01:04;18.40;;;8.20;;
2522;SDS011;1272;53.332;9.860;2022-12-24T18:03:30;18.90;;;8.10;;